createdAt,value
2022-09-12T00:00:03.986Z,9.93
2022-09-12T00:00:14.500Z,9.91
2022-09-12T00:00:25.017Z,9.91
2022-09-12T00:00:35.530Z,9.91
2022-09-12T00:00:46.041Z,9.90
2022-09-12T00:00:56.591Z,9.91
2022-09-12T00:01:07.121Z,9.91
2022-09-12T00:01:17.691Z,9.89
2022-09-12T00:01:28.159Z,9.90
2022-09-12T00:01:38.770Z,9.89
2022-09-12T00:01:49.168Z,9.87
2022-09-12T00:01:59.702Z,9.89
2022-09-12T00:02:10.199Z,9.87
2022-09-12T00:02:20.692Z,9.86
2022-09-12T00:02:31.216Z,9.86
2022-09-12T00:02:41.700Z,9.86
2022-09-12T00:02:52.212Z,9.84
2022-09-12T00:03:02.733Z,9.86
2022-09-12T00:03:13.280Z,9.83
2022-09-12T00:03:23.760Z,9.84
2022-09-12T00:03:34.273Z,9.83
2022-09-12T00:03:44.790Z,9.84
2022-09-12T00:03:55.302Z,9.84
2022-09-12T00:04:05.811Z,9.83
2022-09-12T00:04:16.331Z,9.79
2022-09-12T00:04:26.849Z,9.84
2022-09-12T00:04:37.355Z,9.83
2022-09-12T00:04:47.864Z,9.81
2022-09-12T00:04:58.381Z,9.79
2022-09-12T00:05:08.892Z,9.79
2022-09-12T00:05:19.409Z,9.81
2022-09-12T00:05:29.919Z,9.79
2022-09-12T00:05:40.431Z,9.81
2022-09-12T00:05:50.952Z,9.81
2022-09-12T00:06:01.458Z,9.79
2022-09-12T00:06:11.970Z,9.81
2022-09-12T00:06:23.307Z,9.81
2022-09-12T00:06:32.996Z,9.79
2022-09-12T00:06:43.510Z,9.81
2022-09-12T00:06:54.020Z,9.81
2022-09-12T00:07:04.531Z,9.81
2022-09-12T00:07:15.048Z,9.83
2022-09-12T00:07:25.563Z,9.83
2022-09-12T00:07:36.068Z,9.81
2022-09-12T00:07:46.583Z,9.84
2022-09-12T00:07:57.095Z,9.86
2022-09-12T00:08:07.606Z,9.84
2022-09-12T00:08:18.156Z,9.84
2022-09-12T00:08:28.631Z,9.83
2022-09-12T00:08:39.147Z,9.84
2022-09-12T00:08:49.660Z,9.84
2022-09-12T00:09:00.176Z,9.84
2022-09-12T00:09:10.689Z,9.84
2022-09-12T00:09:21.199Z,9.86
2022-09-12T00:09:31.736Z,9.84
2022-09-12T00:09:42.234Z,9.83
2022-09-12T00:09:52.743Z,9.84
2022-09-12T00:10:03.261Z,9.86
2022-09-12T00:10:13.778Z,9.84
2022-09-12T00:10:24.294Z,9.86
2022-09-12T00:10:34.817Z,9.86
2022-09-12T00:10:45.315Z,9.87
2022-09-12T00:10:55.833Z,9.87
2022-09-12T00:11:06.355Z,9.87
2022-09-12T00:11:16.858Z,9.87
2022-09-12T00:11:27.379Z,9.89
2022-09-12T00:11:37.896Z,9.87
2022-09-12T00:11:48.410Z,9.91
2022-09-12T00:11:58.914Z,9.91
2022-09-12T00:12:09.443Z,9.93
2022-09-12T00:12:19.939Z,9.96
2022-09-12T00:12:30.462Z,9.97
2022-09-12T00:12:40.967Z,10.01
2022-09-12T00:12:51.484Z,10.02
2022-09-12T00:13:01.987Z,10.04
2022-09-12T00:13:12.509Z,10.04
2022-09-12T00:13:23.040Z,10.07
2022-09-12T00:13:35.542Z,10.07
2022-09-12T00:13:44.039Z,10.05
2022-09-12T00:13:54.555Z,10.07
2022-09-12T00:14:05.064Z,10.08
2022-09-12T00:14:15.580Z,10.08
2022-09-12T00:14:26.098Z,10.09
2022-09-12T00:14:36.611Z,10.07
2022-09-12T00:14:47.119Z,10.08
2022-09-12T00:14:57.633Z,10.05
2022-09-12T00:15:08.145Z,10.08
2022-09-12T00:15:18.656Z,10.08
2022-09-12T00:15:29.168Z,10.08
2022-09-12T00:15:39.683Z,10.08
2022-09-12T00:15:50.195Z,10.08
2022-09-12T00:16:00.729Z,10.07
2022-09-12T00:16:11.259Z,10.07
2022-09-12T00:16:21.760Z,10.07
2022-09-12T00:16:32.299Z,10.05
2022-09-12T00:16:42.794Z,10.05
2022-09-12T00:16:53.327Z,10.04
2022-09-12T00:17:03.776Z,10.04
2022-09-12T00:17:14.286Z,10.04
2022-09-12T00:17:24.802Z,10.04
2022-09-12T00:17:35.321Z,10.02
2022-09-12T00:17:45.829Z,10.02
2022-09-12T00:17:56.340Z,10.02
2022-09-12T00:18:06.855Z,10.02
2022-09-12T00:18:17.373Z,10.02
2022-09-12T00:18:27.874Z,10.04
2022-09-12T00:18:38.385Z,10.02
2022-09-12T00:18:48.903Z,10.02
2022-09-12T00:19:00.012Z,10.01
2022-09-12T00:19:09.924Z,10.02
2022-09-12T00:19:20.442Z,10.01
2022-09-12T00:19:30.977Z,9.99
2022-09-12T00:19:41.472Z,9.99
2022-09-12T00:19:51.977Z,9.99
2022-09-12T00:20:02.485Z,9.99
2022-09-12T00:20:13.010Z,9.99
2022-09-12T00:20:23.510Z,9.99
2022-09-12T00:20:34.037Z,9.97
2022-09-12T00:20:44.536Z,9.99
2022-09-12T00:20:55.082Z,9.97
2022-09-12T00:21:05.570Z,9.99
2022-09-12T00:21:16.080Z,9.97
2022-09-12T00:21:26.589Z,9.97
2022-09-12T00:21:37.106Z,9.97
2022-09-12T00:21:47.616Z,9.96
2022-09-12T00:21:58.134Z,9.96
2022-09-12T00:22:08.650Z,9.99
2022-09-12T00:22:19.158Z,9.97
2022-09-12T00:22:29.670Z,9.97
2022-09-12T00:22:40.200Z,9.94
2022-09-12T00:22:50.689Z,9.94
2022-09-12T00:23:01.206Z,9.94
2022-09-12T00:23:11.717Z,9.94
2022-09-12T00:23:22.238Z,9.93
2022-09-12T00:23:32.739Z,9.93
2022-09-12T00:23:43.253Z,9.93
2022-09-12T00:23:53.762Z,9.94
2022-09-12T00:24:04.280Z,9.93
2022-09-12T00:24:14.792Z,9.93
2022-09-12T00:24:25.306Z,9.93
2022-09-12T00:24:35.836Z,9.93
2022-09-12T00:24:46.337Z,9.90
2022-09-12T00:24:56.840Z,9.91
2022-09-12T00:25:07.352Z,9.89
2022-09-12T00:25:17.880Z,9.90
2022-09-12T00:25:28.379Z,9.90
2022-09-12T00:25:38.887Z,9.90
2022-09-12T00:25:49.425Z,9.89
2022-09-12T00:25:59.920Z,9.90
2022-09-12T00:26:10.429Z,9.90
2022-09-12T00:26:20.954Z,9.89
2022-09-12T00:26:31.453Z,9.89
2022-09-12T00:26:41.979Z,9.89
2022-09-12T00:26:52.482Z,9.87
2022-09-12T00:27:02.982Z,9.87
2022-09-12T00:27:13.501Z,9.89
2022-09-12T00:27:24.016Z,9.86
2022-09-12T00:27:34.528Z,9.86
2022-09-12T00:27:45.035Z,9.84
2022-09-12T00:27:55.556Z,9.87
2022-09-12T00:28:06.064Z,9.87
2022-09-12T00:28:16.572Z,9.87
2022-09-12T00:28:27.098Z,9.87
2022-09-12T00:28:37.606Z,9.87
2022-09-12T00:28:48.145Z,9.86
2022-09-12T00:28:58.621Z,9.87
2022-09-12T00:29:09.135Z,9.84
2022-09-12T00:29:19.647Z,9.86
2022-09-12T00:29:30.159Z,9.86
2022-09-12T00:29:40.672Z,9.86
2022-09-12T00:29:51.183Z,9.86
2022-09-12T00:30:01.706Z,9.86
2022-09-12T00:30:12.205Z,9.86
2022-09-12T00:30:22.721Z,9.87
2022-09-12T00:30:33.234Z,9.87
2022-09-12T00:30:43.749Z,9.87
2022-09-12T00:30:54.272Z,9.87
2022-09-12T00:31:04.770Z,9.87
2022-09-12T00:31:15.363Z,9.87
2022-09-12T00:31:25.892Z,9.89
2022-09-12T00:31:36.361Z,9.86
2022-09-12T00:31:46.842Z,9.89
2022-09-12T00:31:57.347Z,9.89
2022-09-12T00:32:07.851Z,9.89
2022-09-12T00:32:18.359Z,9.91
2022-09-12T00:32:28.895Z,9.93
2022-09-12T00:32:39.379Z,9.94
2022-09-12T00:32:49.897Z,9.96
2022-09-12T00:33:00.406Z,9.96
2022-09-12T00:33:10.918Z,9.97
2022-09-12T00:33:21.428Z,9.99
2022-09-12T00:33:31.945Z,10.02
2022-09-12T00:33:42.461Z,10.02
2022-09-12T00:33:52.971Z,10.04
2022-09-12T00:34:03.480Z,10.04
2022-09-12T00:34:13.991Z,10.05
2022-09-12T00:34:24.501Z,10.08
2022-09-12T00:34:35.021Z,10.08
2022-09-12T00:34:45.527Z,10.08
2022-09-12T00:34:56.042Z,10.07
2022-09-12T00:35:06.553Z,10.08
2022-09-12T00:35:17.073Z,10.07
2022-09-12T00:35:27.586Z,10.09
2022-09-12T00:35:38.108Z,10.09
2022-09-12T00:35:48.607Z,10.09
2022-09-12T00:35:59.126Z,10.09
2022-09-12T00:36:09.634Z,10.14
2022-09-12T00:36:20.148Z,10.14
2022-09-12T00:36:30.681Z,10.14
2022-09-12T00:36:41.175Z,10.12
2022-09-12T00:36:51.686Z,10.14
2022-09-12T00:37:02.204Z,10.12
2022-09-12T00:37:12.719Z,10.14
2022-09-12T00:37:23.234Z,10.14
2022-09-12T00:37:33.743Z,10.12
2022-09-12T00:37:44.250Z,10.14
2022-09-12T00:37:54.762Z,10.12
2022-09-12T00:38:05.281Z,10.12
2022-09-12T00:38:15.787Z,10.12
2022-09-12T00:38:26.330Z,10.11
2022-09-12T00:38:36.819Z,10.12
2022-09-12T00:38:47.527Z,10.12
2022-09-12T00:38:57.845Z,10.12
2022-09-12T00:39:08.359Z,10.15
2022-09-12T00:39:18.891Z,10.15
2022-09-12T00:39:29.388Z,10.15
2022-09-12T00:39:39.953Z,10.18
2022-09-12T00:39:50.440Z,10.20
2022-09-12T00:40:00.947Z,10.20
2022-09-12T00:40:11.472Z,10.22
2022-09-12T00:40:21.954Z,10.23
2022-09-12T00:40:32.463Z,10.23
2022-09-12T00:40:42.976Z,10.26
2022-09-12T00:40:53.492Z,10.26
2022-09-12T00:41:04.001Z,10.26
2022-09-12T00:41:14.518Z,10.26
2022-09-12T00:41:25.029Z,10.25
2022-09-12T00:41:35.537Z,10.27
2022-09-12T00:41:46.047Z,10.26
2022-09-12T00:41:56.563Z,10.26
2022-09-12T00:42:07.075Z,10.26
2022-09-12T00:42:17.600Z,10.25
2022-09-12T00:42:28.112Z,10.26
2022-09-12T00:42:38.615Z,10.26
2022-09-12T00:42:49.134Z,10.25
2022-09-12T00:42:59.648Z,10.25
2022-09-12T00:43:10.150Z,10.25
2022-09-12T00:43:20.665Z,10.23
2022-09-12T00:43:31.174Z,10.23
2022-09-12T00:43:41.695Z,10.25
2022-09-12T00:43:52.204Z,10.23
2022-09-12T00:44:02.736Z,10.23
2022-09-12T00:44:13.262Z,10.23
2022-09-12T00:44:23.748Z,10.22
2022-09-12T00:44:34.254Z,10.20
2022-09-12T00:44:44.776Z,10.20
2022-09-12T00:44:55.286Z,10.17
2022-09-12T00:45:05.796Z,10.17
2022-09-12T00:45:16.305Z,10.17
2022-09-12T00:45:26.863Z,10.15
2022-09-12T00:45:37.546Z,10.15
2022-09-12T00:45:47.876Z,10.15
2022-09-12T00:45:58.403Z,10.14
2022-09-12T00:46:08.876Z,10.15
2022-09-12T00:46:19.395Z,10.12
2022-09-12T00:46:29.901Z,10.12
2022-09-12T00:46:40.407Z,10.12
2022-09-12T00:46:50.926Z,10.12
2022-09-12T00:47:01.435Z,10.11
2022-09-12T00:47:11.957Z,10.12
2022-09-12T00:47:22.458Z,10.11
2022-09-12T00:47:32.976Z,10.11
2022-09-12T00:47:43.485Z,10.09
2022-09-12T00:47:54.002Z,10.09
2022-09-12T00:48:04.506Z,10.08
2022-09-12T00:48:15.030Z,10.09
2022-09-12T00:48:25.536Z,10.08
2022-09-12T00:48:36.113Z,10.07
2022-09-12T00:48:46.712Z,10.07
2022-09-12T00:48:57.069Z,10.07
2022-09-12T00:49:07.601Z,10.07
2022-09-12T00:49:18.104Z,10.05
2022-09-12T00:49:28.602Z,10.07
2022-09-12T00:49:39.141Z,10.04
2022-09-12T00:49:49.628Z,10.02
2022-09-12T00:50:00.163Z,10.02
2022-09-12T00:50:10.661Z,10.01
2022-09-12T00:50:21.170Z,10.02
2022-09-12T00:50:31.684Z,10.01
2022-09-12T00:50:42.191Z,9.99
2022-09-12T00:50:52.720Z,9.99
2022-09-12T00:51:03.222Z,9.97
2022-09-12T00:51:13.730Z,9.97
2022-09-12T00:51:24.247Z,9.97
2022-09-12T00:51:34.752Z,9.97
2022-09-12T00:51:45.272Z,9.96
2022-09-12T00:51:55.781Z,9.93
2022-09-12T00:52:06.292Z,9.93
2022-09-12T00:52:16.811Z,9.93
2022-09-12T00:52:27.319Z,9.93
2022-09-12T00:52:37.830Z,9.90
2022-09-12T00:52:48.350Z,9.91
2022-09-12T00:52:58.860Z,9.91
2022-09-12T00:53:09.380Z,9.89
2022-09-12T00:53:19.896Z,9.87
2022-09-12T00:53:30.396Z,9.89
2022-09-12T00:53:40.911Z,9.89
2022-09-12T00:53:51.424Z,9.87
2022-09-12T00:54:01.943Z,9.87
2022-09-12T00:54:12.450Z,9.89
2022-09-12T00:54:22.991Z,9.87
2022-09-12T00:54:33.474Z,9.87
2022-09-12T00:54:44.010Z,9.86
2022-09-12T00:54:54.502Z,9.86
2022-09-12T00:55:05.015Z,9.84
2022-09-12T00:55:15.531Z,9.86
2022-09-12T00:55:26.041Z,9.84
2022-09-12T00:55:36.551Z,9.84
2022-09-12T00:55:47.066Z,9.84
2022-09-12T00:55:57.583Z,9.84
2022-09-12T00:56:08.094Z,9.83
2022-09-12T00:56:18.612Z,9.86
2022-09-12T00:56:29.124Z,9.87
2022-09-12T00:56:39.656Z,9.89
2022-09-12T00:56:50.142Z,9.89
2022-09-12T00:57:00.666Z,9.91
2022-09-12T00:57:11.163Z,9.91
2022-09-12T00:57:21.679Z,9.93
2022-09-12T00:57:32.188Z,9.93
2022-09-12T00:57:42.702Z,9.96
2022-09-12T00:57:53.210Z,9.97
2022-09-12T00:58:03.732Z,9.97
2022-09-12T00:58:14.240Z,9.97
2022-09-12T00:58:24.750Z,9.99
2022-09-12T00:58:35.332Z,10.01
2022-09-12T00:58:45.915Z,10.01
2022-09-12T00:58:56.283Z,9.99
2022-09-12T00:59:06.795Z,9.99
2022-09-12T00:59:17.332Z,9.99
2022-09-12T00:59:27.828Z,9.97
2022-09-12T00:59:38.335Z,9.97
2022-09-12T00:59:48.845Z,9.96
2022-09-12T00:59:59.357Z,9.97
2022-09-12T01:00:09.872Z,9.96
2022-09-12T01:00:20.380Z,9.96
2022-09-12T01:00:30.892Z,9.94
2022-09-12T01:00:41.428Z,9.93
2022-09-12T01:00:51.935Z,9.94
2022-09-12T01:01:02.546Z,9.93
2022-09-12T01:01:13.060Z,9.93
2022-09-12T01:01:23.565Z,9.93
2022-09-12T01:01:34.091Z,9.91
2022-09-12T01:01:44.546Z,9.91
2022-09-12T01:01:55.101Z,9.91
2022-09-12T01:02:05.594Z,9.89
2022-09-12T01:02:16.057Z,9.87
2022-09-12T01:02:26.563Z,9.90
2022-09-12T01:02:37.036Z,9.87
2022-09-12T01:02:47.553Z,9.87
2022-09-12T01:02:58.067Z,9.86
2022-09-12T01:03:08.576Z,9.86
2022-09-12T01:03:19.084Z,9.86
2022-09-12T01:03:29.604Z,9.86
2022-09-12T01:03:40.113Z,9.84
2022-09-12T01:03:50.621Z,9.83
2022-09-12T01:04:01.136Z,9.83
2022-09-12T01:04:11.646Z,9.81
2022-09-12T01:04:22.160Z,9.83
2022-09-12T01:04:32.671Z,9.79
2022-09-12T01:04:43.188Z,9.79
2022-09-12T01:04:53.720Z,9.79
2022-09-12T01:05:04.202Z,9.78
2022-09-12T01:05:14.720Z,9.78
2022-09-12T01:05:25.235Z,9.79
2022-09-12T01:05:35.743Z,9.78
2022-09-12T01:05:46.257Z,9.76
2022-09-12T01:05:56.765Z,9.75
2022-09-12T01:06:07.277Z,9.76
2022-09-12T01:06:17.788Z,9.75
2022-09-12T01:06:28.307Z,9.74
2022-09-12T01:06:38.813Z,9.75
2022-09-12T01:06:49.321Z,9.74
2022-09-12T01:06:59.841Z,9.74
2022-09-12T01:07:10.352Z,9.72
2022-09-12T01:07:20.862Z,9.72
2022-09-12T01:07:31.370Z,9.74
2022-09-12T01:07:41.880Z,9.74
2022-09-12T01:07:52.394Z,9.74
2022-09-12T01:08:02.906Z,9.74
2022-09-12T01:08:13.415Z,9.71
2022-09-12T01:08:23.932Z,9.71
2022-09-12T01:08:34.556Z,9.72
2022-09-12T01:08:45.007Z,9.72
2022-09-12T01:08:55.456Z,9.71
2022-09-12T01:09:05.972Z,9.71
2022-09-12T01:09:16.482Z,9.71
2022-09-12T01:09:27.000Z,9.72
2022-09-12T01:09:37.502Z,9.71
2022-09-12T01:09:48.155Z,9.71
2022-09-12T01:09:58.556Z,9.69
2022-09-12T01:10:09.042Z,9.69
2022-09-12T01:10:19.557Z,9.71
2022-09-12T01:10:30.062Z,9.71
2022-09-12T01:10:40.580Z,9.69
2022-09-12T01:10:51.091Z,9.69
2022-09-12T01:11:01.602Z,9.71
2022-09-12T01:11:12.113Z,9.69
2022-09-12T01:11:22.647Z,9.69
2022-09-12T01:11:33.176Z,9.71
2022-09-12T01:11:43.649Z,9.71
2022-09-12T01:11:54.164Z,9.69
2022-09-12T01:12:04.671Z,9.71
2022-09-12T01:12:15.215Z,9.71
2022-09-12T01:12:25.701Z,9.71
2022-09-12T01:12:36.208Z,9.71
2022-09-12T01:12:46.719Z,9.71
2022-09-12T01:12:57.239Z,9.69
2022-09-12T01:13:07.736Z,9.71
2022-09-12T01:13:18.259Z,9.69
2022-09-12T01:13:28.759Z,9.71
2022-09-12T01:13:39.272Z,9.71
2022-09-12T01:13:49.782Z,9.69
2022-09-12T01:14:00.299Z,9.71
2022-09-12T01:14:10.810Z,9.71
2022-09-12T01:14:21.330Z,9.71
2022-09-12T01:14:31.838Z,9.69
2022-09-12T01:14:42.344Z,9.69
2022-09-12T01:14:52.862Z,9.69
2022-09-12T01:15:03.368Z,9.72
2022-09-12T01:15:13.902Z,9.71
2022-09-12T01:15:24.411Z,9.71
2022-09-12T01:15:34.911Z,9.72
2022-09-12T01:15:45.412Z,9.72
2022-09-12T01:15:55.927Z,9.74
2022-09-12T01:16:06.471Z,9.74
2022-09-12T01:16:17.028Z,9.75
2022-09-12T01:16:27.533Z,9.75
2022-09-12T01:16:38.039Z,9.76
2022-09-12T01:16:48.500Z,9.75
2022-09-12T01:16:59.003Z,9.75
2022-09-12T01:17:09.519Z,9.76
2022-09-12T01:17:20.064Z,9.75
2022-09-12T01:17:30.553Z,9.74
2022-09-12T01:17:41.060Z,9.76
2022-09-12T01:17:51.579Z,9.72
2022-09-12T01:18:02.084Z,9.75
2022-09-12T01:18:12.607Z,9.74
2022-09-12T01:18:23.113Z,9.74
2022-09-12T01:18:33.624Z,9.74
2022-09-12T01:18:44.202Z,9.74
2022-09-12T01:18:54.644Z,9.72
2022-09-12T01:19:05.163Z,9.74
2022-09-12T01:19:15.669Z,9.72
2022-09-12T01:19:26.183Z,9.71
2022-09-12T01:19:36.701Z,9.69
2022-09-12T01:19:47.207Z,9.71
2022-09-12T01:19:57.720Z,9.71
2022-09-12T01:20:08.231Z,9.69
2022-09-12T01:20:18.744Z,9.71
2022-09-12T01:20:29.253Z,9.69
2022-09-12T01:20:39.765Z,9.69
2022-09-12T01:20:50.287Z,9.71
2022-09-12T01:21:00.788Z,9.69
2022-09-12T01:21:11.305Z,9.68
2022-09-12T01:21:21.813Z,9.68
2022-09-12T01:21:32.327Z,9.65
2022-09-12T01:21:42.842Z,9.66
2022-09-12T01:21:53.349Z,9.66
2022-09-12T01:22:03.858Z,9.65
2022-09-12T01:22:14.375Z,9.65
2022-09-12T01:22:24.914Z,9.64
2022-09-12T01:22:35.406Z,9.65
2022-09-12T01:22:45.907Z,9.64
2022-09-12T01:22:56.424Z,9.64
2022-09-12T01:23:06.937Z,9.61
2022-09-12T01:23:17.458Z,9.61
2022-09-12T01:23:27.961Z,9.61
2022-09-12T01:23:38.472Z,9.61
2022-09-12T01:23:48.990Z,9.61
2022-09-12T01:23:59.501Z,9.61
2022-09-12T01:24:10.015Z,9.61
2022-09-12T01:24:20.529Z,9.60
2022-09-12T01:24:31.036Z,9.61
2022-09-12T01:24:41.545Z,9.64
2022-09-12T01:24:52.088Z,9.61
2022-09-12T01:25:02.583Z,9.64
2022-09-12T01:25:13.091Z,9.61
2022-09-12T01:25:23.611Z,9.64
2022-09-12T01:25:34.126Z,9.61
2022-09-12T01:25:44.654Z,9.65
2022-09-12T01:25:55.147Z,9.64
2022-09-12T01:26:05.671Z,9.65
2022-09-12T01:26:16.184Z,9.65
2022-09-12T01:26:26.690Z,9.64
2022-09-12T01:26:37.213Z,9.64
2022-09-12T01:26:47.722Z,9.64
2022-09-12T01:26:58.230Z,9.66
2022-09-12T01:27:08.751Z,9.65
2022-09-12T01:27:19.271Z,9.65
2022-09-12T01:27:29.774Z,9.65
2022-09-12T01:27:40.293Z,9.65
2022-09-12T01:27:50.819Z,9.66
2022-09-12T01:28:01.320Z,9.66
2022-09-12T01:28:11.831Z,9.66
2022-09-12T01:28:22.341Z,9.68
2022-09-12T01:28:32.862Z,9.66
2022-09-12T01:28:43.409Z,9.66
2022-09-12T01:28:53.882Z,9.66
2022-09-12T01:29:04.399Z,9.68
2022-09-12T01:29:14.911Z,9.68
2022-09-12T01:29:25.419Z,9.66
2022-09-12T01:29:35.943Z,9.69
2022-09-12T01:29:46.452Z,9.68
2022-09-12T01:29:56.957Z,9.66
2022-09-12T01:30:07.471Z,9.66
2022-09-12T01:30:17.980Z,9.66
2022-09-12T01:30:28.493Z,9.65
2022-09-12T01:30:39.056Z,9.66
2022-09-12T01:30:49.518Z,9.65
2022-09-12T01:31:00.036Z,9.65
2022-09-12T01:31:10.548Z,9.66
2022-09-12T01:31:21.067Z,9.65
2022-09-12T01:31:31.571Z,9.66
2022-09-12T01:31:42.087Z,9.66
2022-09-12T01:31:52.655Z,9.66
2022-09-12T01:32:03.140Z,9.68
2022-09-12T01:32:13.644Z,9.66
2022-09-12T01:32:24.172Z,9.66
2022-09-12T01:32:34.660Z,9.66
2022-09-12T01:32:45.151Z,9.65
2022-09-12T01:32:55.664Z,9.66
2022-09-12T01:33:06.178Z,9.65
2022-09-12T01:33:16.697Z,9.65
2022-09-12T01:33:27.206Z,9.66
2022-09-12T01:33:37.716Z,9.65
2022-09-12T01:33:48.227Z,9.66
2022-09-12T01:33:58.739Z,9.66
2022-09-12T01:34:09.250Z,9.68
2022-09-12T01:34:19.765Z,9.66
2022-09-12T01:34:30.284Z,9.69
2022-09-12T01:34:40.785Z,9.68
2022-09-12T01:34:51.302Z,9.68
2022-09-12T01:35:01.817Z,9.68
2022-09-12T01:35:12.329Z,9.68
2022-09-12T01:35:22.840Z,9.69
2022-09-12T01:35:33.364Z,9.69
2022-09-12T01:35:43.865Z,9.71
2022-09-12T01:35:54.376Z,9.72
2022-09-12T01:36:04.892Z,9.72
2022-09-12T01:36:15.406Z,9.72
2022-09-12T01:36:25.918Z,9.72
2022-09-12T01:36:36.424Z,9.74
2022-09-12T01:36:46.950Z,9.75
2022-09-12T01:36:57.457Z,9.75
2022-09-12T01:37:07.973Z,9.78
2022-09-12T01:37:18.508Z,9.78
2022-09-12T01:37:29.005Z,9.78
2022-09-12T01:37:39.509Z,9.78
2022-09-12T01:37:50.037Z,9.79
2022-09-12T01:38:00.530Z,9.78
2022-09-12T01:38:11.041Z,9.78
2022-09-12T01:38:21.554Z,9.79
2022-09-12T01:38:32.068Z,9.81
2022-09-12T01:38:42.585Z,9.81
2022-09-12T01:38:53.091Z,9.83
2022-09-12T01:39:03.604Z,9.84
2022-09-12T01:39:14.120Z,9.86
2022-09-12T01:39:24.629Z,9.84
2022-09-12T01:39:35.161Z,9.87
2022-09-12T01:39:45.708Z,9.87
2022-09-12T01:39:56.243Z,9.86
2022-09-12T01:40:06.734Z,9.90
2022-09-12T01:40:17.209Z,9.89
2022-09-12T01:40:27.703Z,9.91
2022-09-12T01:40:38.216Z,9.90
2022-09-12T01:40:48.738Z,9.90
2022-09-12T01:40:59.244Z,9.93
2022-09-12T01:41:09.777Z,9.93
2022-09-12T01:41:20.260Z,9.94
2022-09-12T01:41:30.778Z,9.94
2022-09-12T01:41:41.289Z,9.94
2022-09-12T01:41:51.812Z,9.94
2022-09-12T01:42:02.311Z,9.94
2022-09-12T01:42:12.850Z,9.94
2022-09-12T01:42:23.336Z,9.97
2022-09-12T01:42:33.848Z,9.97
2022-09-12T01:42:44.357Z,9.99
2022-09-12T01:42:54.878Z,10.01
2022-09-12T01:43:05.388Z,10.01
2022-09-12T01:43:15.898Z,10.02
2022-09-12T01:43:26.403Z,10.01
2022-09-12T01:43:36.919Z,10.02
2022-09-12T01:43:47.443Z,10.02
2022-09-12T01:43:57.942Z,10.02
2022-09-12T01:44:08.455Z,10.02
2022-09-12T01:44:18.974Z,10.04
2022-09-12T01:44:29.487Z,10.02
2022-09-12T01:44:39.994Z,10.07
2022-09-12T01:44:50.501Z,10.05
2022-09-12T01:45:01.010Z,10.05
2022-09-12T01:45:11.527Z,10.07
2022-09-12T01:45:22.037Z,10.07
2022-09-12T01:45:32.596Z,10.08
2022-09-12T01:45:43.085Z,10.09
2022-09-12T01:45:53.622Z,10.09
2022-09-12T01:46:04.147Z,10.12
2022-09-12T01:46:14.597Z,10.12
2022-09-12T01:46:25.114Z,10.12
2022-09-12T01:46:35.631Z,10.15
2022-09-12T01:46:46.144Z,10.17
2022-09-12T01:46:56.667Z,10.15
2022-09-12T01:47:07.160Z,10.14
2022-09-12T01:47:17.673Z,10.17
2022-09-12T01:47:28.182Z,10.14
2022-09-12T01:47:38.694Z,10.14
2022-09-12T01:47:49.210Z,10.15
2022-09-12T01:47:59.718Z,10.17
2022-09-12T01:48:10.232Z,10.17
2022-09-12T01:48:20.747Z,10.17
2022-09-12T01:48:31.256Z,10.15
2022-09-12T01:48:41.843Z,10.15
2022-09-12T01:48:52.280Z,10.15
2022-09-12T01:49:02.785Z,10.15
2022-09-12T01:49:13.302Z,10.15
2022-09-12T01:49:23.817Z,10.15
2022-09-12T01:49:34.334Z,10.15
2022-09-12T01:49:44.836Z,10.15
2022-09-12T01:49:55.354Z,10.15
2022-09-12T01:50:05.863Z,10.15
2022-09-12T01:50:16.401Z,10.15
2022-09-12T01:50:26.889Z,10.17
2022-09-12T01:50:37.407Z,10.15
2022-09-12T01:50:47.919Z,10.15
2022-09-12T01:50:58.426Z,10.15
2022-09-12T01:51:08.938Z,10.17
2022-09-12T01:51:19.452Z,10.14
2022-09-12T01:51:29.969Z,10.15
2022-09-12T01:51:40.472Z,10.15
2022-09-12T01:51:50.995Z,10.14
2022-09-12T01:52:01.513Z,10.15
2022-09-12T01:52:12.020Z,10.15
2022-09-12T01:52:22.531Z,10.15
2022-09-12T01:52:33.045Z,10.14
2022-09-12T01:52:43.552Z,10.15
2022-09-12T01:52:54.066Z,10.14
2022-09-12T01:53:04.582Z,10.15
2022-09-12T01:53:15.087Z,10.15
2022-09-12T01:53:25.624Z,10.15
2022-09-12T01:53:36.123Z,10.17
2022-09-12T01:53:46.638Z,10.17
2022-09-12T01:53:57.153Z,10.18
2022-09-12T01:54:07.662Z,10.17
2022-09-12T01:54:18.172Z,10.17
2022-09-12T01:54:28.717Z,10.18
2022-09-12T01:54:39.196Z,10.18
2022-09-12T01:54:49.709Z,10.18
2022-09-12T01:55:00.236Z,10.18
2022-09-12T01:55:10.726Z,10.18
2022-09-12T01:55:21.233Z,10.22
2022-09-12T01:55:31.760Z,10.20
2022-09-12T01:55:42.259Z,10.20
2022-09-12T01:55:52.774Z,10.20
2022-09-12T01:56:03.303Z,10.20
2022-09-12T01:56:13.793Z,10.20
2022-09-12T01:56:24.302Z,10.20
2022-09-12T01:56:34.816Z,10.20
2022-09-12T01:56:45.326Z,10.20
2022-09-12T01:56:55.842Z,10.22
2022-09-12T01:57:06.345Z,10.22
2022-09-12T01:57:16.858Z,10.20
2022-09-12T01:57:27.378Z,10.22
2022-09-12T01:57:37.887Z,10.23
2022-09-12T01:57:48.393Z,10.25
2022-09-12T01:57:58.904Z,10.23
2022-09-12T01:58:09.419Z,10.25
2022-09-12T01:58:19.929Z,10.25
2022-09-12T01:58:30.449Z,10.26
2022-09-12T01:58:41.108Z,10.25
2022-09-12T01:58:51.462Z,10.26
2022-09-12T01:59:01.981Z,10.26
2022-09-12T01:59:12.486Z,10.26
2022-09-12T01:59:22.998Z,10.27
2022-09-12T01:59:33.509Z,10.27
2022-09-12T01:59:44.024Z,10.27
2022-09-12T01:59:54.531Z,10.27
2022-09-12T02:00:05.042Z,10.27
2022-09-12T02:00:15.551Z,10.27
2022-09-12T02:00:26.066Z,10.27
2022-09-12T02:00:36.579Z,10.26
2022-09-12T02:00:47.146Z,10.29
2022-09-12T02:00:57.625Z,10.27
2022-09-12T02:01:08.219Z,10.27
2022-09-12T02:01:18.672Z,10.29
2022-09-12T02:01:29.181Z,10.30
2022-09-12T02:01:39.651Z,10.29
2022-09-12T02:01:50.201Z,10.32
2022-09-12T02:02:00.727Z,10.30
2022-09-12T02:02:11.243Z,10.30
2022-09-12T02:02:21.781Z,10.32
2022-09-12T02:02:32.215Z,10.30
2022-09-12T02:02:42.725Z,10.32
2022-09-12T02:02:53.250Z,10.32
2022-09-12T02:03:03.749Z,10.32
2022-09-12T02:03:14.264Z,10.33
2022-09-12T02:03:24.771Z,10.32
2022-09-12T02:03:35.290Z,10.33
2022-09-12T02:03:45.800Z,10.34
2022-09-12T02:03:56.321Z,10.34
2022-09-12T02:04:06.825Z,10.34
2022-09-12T02:04:17.340Z,10.38
2022-09-12T02:04:31.142Z,10.34
2022-09-12T02:04:39.369Z,10.36
2022-09-12T02:04:48.876Z,10.36
2022-09-12T02:04:59.385Z,10.40
2022-09-12T02:05:09.897Z,10.38
2022-09-12T02:05:20.407Z,10.36
2022-09-12T02:05:30.939Z,10.38
2022-09-12T02:05:41.439Z,10.36
2022-09-12T02:05:51.950Z,10.38
2022-09-12T02:06:02.459Z,10.38
2022-09-12T02:06:12.968Z,10.38
2022-09-12T02:06:23.486Z,10.38
2022-09-12T02:06:34.015Z,10.38
2022-09-12T02:06:44.517Z,10.38
2022-09-12T02:06:55.019Z,10.38
2022-09-12T02:07:05.537Z,10.36
2022-09-12T02:07:16.053Z,10.38
2022-09-12T02:07:26.587Z,10.38
2022-09-12T02:07:37.075Z,10.38
2022-09-12T02:07:47.614Z,10.38
2022-09-12T02:07:58.097Z,10.38
2022-09-12T02:08:08.618Z,10.36
2022-09-12T02:08:19.129Z,10.38
2022-09-12T02:08:29.641Z,10.36
2022-09-12T02:08:40.154Z,10.40
2022-09-12T02:08:50.667Z,10.38
2022-09-12T02:09:01.174Z,10.38
2022-09-12T02:09:11.694Z,10.40
2022-09-12T02:09:22.201Z,10.38
2022-09-12T02:09:32.713Z,10.40
2022-09-12T02:09:43.237Z,10.38
2022-09-12T02:09:53.742Z,10.38
2022-09-12T02:10:04.275Z,10.36
2022-09-12T02:10:14.772Z,10.38
2022-09-12T02:10:29.119Z,10.38
2022-09-12T02:10:36.794Z,10.38
2022-09-12T02:10:46.368Z,10.36
2022-09-12T02:10:56.827Z,10.36
2022-09-12T02:11:07.331Z,10.38
2022-09-12T02:11:17.848Z,10.36
2022-09-12T02:11:28.365Z,10.38
2022-09-12T02:11:38.879Z,10.36
2022-09-12T02:11:49.390Z,10.38
2022-09-12T02:11:59.896Z,10.36
2022-09-12T02:12:10.405Z,10.36
2022-09-12T02:12:20.934Z,10.36
2022-09-12T02:12:31.427Z,10.36
2022-09-12T02:12:41.948Z,10.36
2022-09-12T02:12:52.462Z,10.38
2022-09-12T02:13:02.967Z,10.38
2022-09-12T02:13:13.500Z,10.36
2022-09-12T02:13:23.992Z,10.36
2022-09-12T02:13:34.499Z,10.38
2022-09-12T02:13:45.020Z,10.40
2022-09-12T02:13:55.528Z,10.36
2022-09-12T02:14:06.041Z,10.38
2022-09-12T02:14:16.555Z,10.38
2022-09-12T02:14:27.066Z,10.38
2022-09-12T02:14:37.576Z,10.36
2022-09-12T02:14:48.092Z,10.36
2022-09-12T02:14:58.599Z,10.38
2022-09-12T02:15:09.123Z,10.38
2022-09-12T02:15:19.632Z,10.36
2022-09-12T02:15:30.142Z,10.38
2022-09-12T02:15:40.653Z,10.38
2022-09-12T02:15:51.177Z,10.38
2022-09-12T02:16:01.680Z,10.36
2022-09-12T02:16:12.292Z,10.38
2022-09-12T02:16:22.732Z,10.38
2022-09-12T02:16:33.285Z,10.36
2022-09-12T02:16:43.763Z,10.36
2022-09-12T02:16:54.250Z,10.38
2022-09-12T02:17:04.776Z,10.36
2022-09-12T02:17:15.283Z,10.38
2022-09-12T02:17:25.786Z,10.36
2022-09-12T02:17:36.307Z,10.38
2022-09-12T02:17:46.823Z,10.38
2022-09-12T02:17:57.334Z,10.34